sensor_id;sensor_type;location;lat;lon;timestamp;P1;durP1;ratioP1;P2;durP2;ratioP2
13832;SDS011;6987;19.472;-99.276;2023-05-07T00:01:57;20.02;;;13.90;;
13832;SDS011;6987;19.472;-99.276;2023-05-07T00:04:26;18.13;;;14.63;;
13832;SDS011;6987;19.472;-99.276;2023-05-07T00:07:01;15.40;;;13.30;;
13832;SDS011;6987;19.472;-99.276;2023-05-07T00:09:30;18.65;;;14.45;;
13832;SDS011;6987;19.472;-99.276;2023-05-07T00:11:59;15.18;;;12.88;;
13832;SDS011;6987;19.472;-99.276;2023-05-07T00:14:29;19.00;;;12.85;;
13832;SDS011;6987;19.472;-99.276;2023-05-07T00:16:59;22.02;;;13.77;;
13832;SDS011;6987;19.472;-99.276;2023-05-07T00:19:27;15.25;;;13.57;;
13832;SDS011;6987;19.472;-99.276;2023-05-07T00:21:56;20.60;;;13.70;;
13832;SDS011;6987;19.472;-99.276;2023-05-07T00:24:25;14.85;;;13.35;;
13832;SDS011;6987;19.472;-99.276;2023-05-07T00:26:55;14.52;;;13.02;;
13832;SDS011;6987;19.472;-99.276;2023-05-07T00:29:24;14.02;;;12.10;;
13832;SDS011;6987;19.472;-99.276;2023-05-07T00:31:55;15.63;;;12.65;;
13832;SDS011;6987;19.472;-99.276;2023-05-07T00:34:24;16.73;;;12.70;;
13832;SDS011;6987;19.472;-99.276;2023-05-07T00:36:53;21.80;;;13.00;;
13832;SDS011;6987;19.472;-99.276;2023-05-07T00:39:22;13.07;;;11.55;;
13832;SDS011;6987;19.472;-99.276;2023-05-07T00:41:51;20.77;;;11.77;;
13832;SDS011;6987;19.472;-99.276;2023-05-07T00:44:20;12.15;;;8.30;;
13832;SDS011;6987;19.472;-99.276;2023-05-07T00:46:50;10.48;;;8.38;;
13832;SDS011;6987;19.472;-99.276;2023-05-07T00:49:20;10.75;;;8.63;;
13832;SDS011;6987;19.472;-99.276;2023-05-07T00:51:49;8.80;;;7.93;;
13832;SDS011;6987;19.472;-99.276;2023-05-07T00:54:18;14.07;;;8.13;;
13832;SDS011;6987;19.472;-99.276;2023-05-07T00:56:48;10.38;;;8.93;;
13832;SDS011;6987;19.472;-99.276;2023-05-07T00:59:17;12.77;;;8.88;;
13832;SDS011;6987;19.472;-99.276;2023-05-07T01:01:46;10.55;;;9.48;;
13832;SDS011;6987;19.472;-99.276;2023-05-07T01:04:15;8.82;;;8.20;;
13832;SDS011;6987;19.472;-99.276;2023-05-07T01:06:46;11.32;;;9.93;;
13832;SDS011;6987;19.472;-99.276;2023-05-07T01:09:16;9.77;;;8.65;;
13832;SDS011;6987;19.472;-99.276;2023-05-07T01:11:46;14.15;;;9.75;;
13832;SDS011;6987;19.472;-99.276;2023-05-07T01:14:15;12.60;;;9.93;;
13832;SDS011;6987;19.472;-99.276;2023-05-07T01:16:44;11.82;;;10.23;;
13832;SDS011;6987;19.472;-99.276;2023-05-07T01:19:13;13.05;;;11.77;;
13832;SDS011;6987;19.472;-99.276;2023-05-07T01:21:44;13.77;;;11.15;;
13832;SDS011;6987;19.472;-99.276;2023-05-07T01:24:15;13.50;;;12.10;;
13832;SDS011;6987;19.472;-99.276;2023-05-07T01:26:44;11.30;;;10.15;;
13832;SDS011;6987;19.472;-99.276;2023-05-07T01:29:13;11.50;;;10.30;;
13832;SDS011;6987;19.472;-99.276;2023-05-07T01:31:42;11.43;;;10.35;;
13832;SDS011;6987;19.472;-99.276;2023-05-07T01:34:11;12.23;;;11.13;;
13832;SDS011;6987;19.472;-99.276;2023-05-07T01:36:41;13.15;;;11.23;;
13832;SDS011;6987;19.472;-99.276;2023-05-07T01:39:12;13.73;;;12.27;;
13832;SDS011;6987;19.472;-99.276;2023-05-07T01:41:43;14.70;;;12.93;;
13832;SDS011;6987;19.472;-99.276;2023-05-07T01:44:12;14.55;;;13.07;;
13832;SDS011;6987;19.472;-99.276;2023-05-07T01:46:41;14.98;;;13.43;;
13832;SDS011;6987;19.472;-99.276;2023-05-07T01:49:11;14.10;;;12.60;;
13832;SDS011;6987;19.472;-99.276;2023-05-07T01:51:40;11.57;;;10.40;;
13832;SDS011;6987;19.472;-99.276;2023-05-07T01:54:09;10.82;;;9.82;;
13832;SDS011;6987;19.472;-99.276;2023-05-07T01:56:38;10.55;;;8.88;;
13832;SDS011;6987;19.472;-99.276;2023-05-07T01:59:09;10.50;;;9.57;;
13832;SDS011;6987;19.472;-99.276;2023-05-07T02:01:39;9.80;;;8.50;;
13832;SDS011;6987;19.472;-99.276;2023-05-07T02:04:09;6.05;;;5.55;;
13832;SDS011;6987;19.472;-99.276;2023-05-07T02:06:38;6.40;;;5.80;;
13832;SDS011;6987;19.472;-99.276;2023-05-07T02:09:07;7.05;;;6.28;;
13832;SDS011;6987;19.472;-99.276;2023-05-07T02:11:36;7.25;;;6.00;;
13832;SDS011;6987;19.472;-99.276;2023-05-07T02:14:05;8.00;;;6.00;;
13832;SDS011;6987;19.472;-99.276;2023-05-07T02:16:36;6.85;;;6.03;;
13832;SDS011;6987;19.472;-99.276;2023-05-07T02:19:05;5.30;;;4.88;;
13832;SDS011;6987;19.472;-99.276;2023-05-07T02:21:34;5.28;;;4.78;;
13832;SDS011;6987;19.472;-99.276;2023-05-07T02:24:03;7.07;;;6.57;;
13832;SDS011;6987;19.472;-99.276;2023-05-07T02:26:32;8.32;;;6.15;;
13832;SDS011;6987;19.472;-99.276;2023-05-07T02:29:02;11.23;;;9.48;;
13832;SDS011;6987;19.472;-99.276;2023-05-07T02:31:31;11.48;;;10.32;;
13832;SDS011;6987;19.472;-99.276;2023-05-07T02:34:02;10.45;;;9.43;;
13832;SDS011;6987;19.472;-99.276;2023-05-07T02:36:31;11.73;;;10.52;;
13832;SDS011;6987;19.472;-99.276;2023-05-07T02:39:00;10.52;;;9.43;;
13832;SDS011;6987;19.472;-99.276;2023-05-07T02:41:30;7.97;;;7.40;;
13832;SDS011;6987;19.472;-99.276;2023-05-07T02:43:59;7.88;;;7.22;;
13832;SDS011;6987;19.472;-99.276;2023-05-07T02:46:28;8.65;;;7.85;;
13832;SDS011;6987;19.472;-99.276;2023-05-07T02:48:57;8.85;;;8.05;;
13832;SDS011;6987;19.472;-99.276;2023-05-07T02:51:28;8.23;;;7.50;;
13832;SDS011;6987;19.472;-99.276;2023-05-07T02:53:57;8.63;;;7.35;;
13832;SDS011;6987;19.472;-99.276;2023-05-07T02:56:26;9.25;;;8.35;;
13832;SDS011;6987;19.472;-99.276;2023-05-07T02:58:55;8.45;;;7.68;;
13832;SDS011;6987;19.472;-99.276;2023-05-07T03:01:24;9.25;;;8.45;;
13832;SDS011;6987;19.472;-99.276;2023-05-07T03:03:54;11.63;;;10.45;;
13832;SDS011;6987;19.472;-99.276;2023-05-07T03:06:23;10.10;;;8.65;;
13832;SDS011;6987;19.472;-99.276;2023-05-07T03:08:54;11.27;;;10.18;;
13832;SDS011;6987;19.472;-99.276;2023-05-07T03:11:23;12.35;;;10.80;;
13832;SDS011;6987;19.472;-99.276;2023-05-07T03:13:52;11.82;;;10.63;;
13832;SDS011;6987;19.472;-99.276;2023-05-07T03:16:20;13.07;;;11.57;;
13832;SDS011;6987;19.472;-99.276;2023-05-07T03:18:51;12.55;;;11.43;;
13832;SDS011;6987;19.472;-99.276;2023-05-07T03:21:20;13.80;;;11.77;;
13832;SDS011;6987;19.472;-99.276;2023-05-07T03:23:49;12.85;;;11.10;;
13832;SDS011;6987;19.472;-99.276;2023-05-07T03:26:19;13.02;;;11.80;;
13832;SDS011;6987;19.472;-99.276;2023-05-07T03:28:49;11.20;;;10.23;;
13832;SDS011;6987;19.472;-99.276;2023-05-07T03:31:17;11.70;;;10.52;;
13832;SDS011;6987;19.472;-99.276;2023-05-07T03:33:50;10.55;;;9.55;;
13832;SDS011;6987;19.472;-99.276;2023-05-07T03:36:21;12.38;;;10.30;;
13832;SDS011;6987;19.472;-99.276;2023-05-07T03:38:52;12.23;;;11.02;;
13832;SDS011;6987;19.472;-99.276;2023-05-07T03:41:22;11.18;;;9.70;;
13832;SDS011;6987;19.472;-99.276;2023-05-07T03:43:51;14.15;;;10.50;;
13832;SDS011;6987;19.472;-99.276;2023-05-07T03:46:21;9.90;;;9.00;;
13832;SDS011;6987;19.472;-99.276;2023-05-07T03:48:51;11.23;;;10.05;;
13832;SDS011;6987;19.472;-99.276;2023-05-07T03:51:20;10.90;;;9.98;;
13832;SDS011;6987;19.472;-99.276;2023-05-07T03:53:49;10.07;;;9.18;;
13832;SDS011;6987;19.472;-99.276;2023-05-07T03:56:19;10.75;;;9.65;;
13832;SDS011;6987;19.472;-99.276;2023-05-07T03:58:50;9.93;;;9.07;;
13832;SDS011;6987;19.472;-99.276;2023-05-07T04:01:19;8.98;;;8.23;;
13832;SDS011;6987;19.472;-99.276;2023-05-07T04:03:48;8.73;;;7.93;;
13832;SDS011;6987;19.472;-99.276;2023-05-07T04:06:17;9.98;;;8.25;;
13832;SDS011;6987;19.472;-99.276;2023-05-07T04:08:46;7.78;;;7.07;;
13832;SDS011;6987;19.472;-99.276;2023-05-07T04:11:15;12.60;;;8.50;;
13832;SDS011;6987;19.472;-99.276;2023-05-07T04:13:44;8.88;;;7.63;;
13832;SDS011;6987;19.472;-99.276;2023-05-07T04:16:15;8.52;;;7.80;;
13832;SDS011;6987;19.472;-99.276;2023-05-07T04:18:44;8.32;;;7.43;;
13832;SDS011;6987;19.472;-99.276;2023-05-07T04:21:14;8.82;;;7.75;;
13832;SDS011;6987;19.472;-99.276;2023-05-07T04:23:43;8.07;;;7.40;;
13832;SDS011;6987;19.472;-99.276;2023-05-07T04:26:12;7.30;;;6.50;;
13832;SDS011;6987;19.472;-99.276;2023-05-07T04:28:41;7.60;;;6.90;;
13832;SDS011;6987;19.472;-99.276;2023-05-07T04:31:10;8.23;;;7.03;;
13832;SDS011;6987;19.472;-99.276;2023-05-07T04:33:41;7.70;;;6.78;;
13832;SDS011;6987;19.472;-99.276;2023-05-07T04:36:09;7.38;;;6.25;;
13832;SDS011;6987;19.472;-99.276;2023-05-07T04:38:39;6.18;;;5.63;;
13832;SDS011;6987;19.472;-99.276;2023-05-07T04:41:08;6.93;;;6.32;;
13832;SDS011;6987;19.472;-99.276;2023-05-07T04:43:38;7.22;;;5.97;;
13832;SDS011;6987;19.472;-99.276;2023-05-07T04:46:07;6.80;;;5.30;;
13832;SDS011;6987;19.472;-99.276;2023-05-07T04:48:36;5.80;;;5.30;;
13832;SDS011;6987;19.472;-99.276;2023-05-07T04:51:07;5.97;;;5.00;;
13832;SDS011;6987;19.472;-99.276;2023-05-07T04:53:37;7.75;;;5.95;;
13832;SDS011;6987;19.472;-99.276;2023-05-07T04:56:06;5.65;;;5.25;;
13832;SDS011;6987;19.472;-99.276;2023-05-07T04:58:35;5.57;;;5.22;;
13832;SDS011;6987;19.472;-99.276;2023-05-07T05:01:04;5.47;;;5.03;;
13832;SDS011;6987;19.472;-99.276;2023-05-07T05:03:33;5.75;;;5.35;;
13832;SDS011;6987;19.472;-99.276;2023-05-07T05:06:02;6.13;;;5.30;;
13832;SDS011;6987;19.472;-99.276;2023-05-07T05:08:33;5.60;;;5.10;;
13832;SDS011;6987;19.472;-99.276;2023-05-07T05:11:02;6.07;;;5.25;;
13832;SDS011;6987;19.472;-99.276;2023-05-07T05:13:31;5.53;;;5.03;;
13832;SDS011;6987;19.472;-99.276;2023-05-07T05:16:00;4.85;;;4.55;;
13832;SDS011;6987;19.472;-99.276;2023-05-07T05:18:29;5.20;;;4.72;;
13832;SDS011;6987;19.472;-99.276;2023-05-07T05:20:58;5.53;;;5.03;;
13832;SDS011;6987;19.472;-99.276;2023-05-07T05:23:27;5.55;;;5.05;;
13832;SDS011;6987;19.472;-99.276;2023-05-07T05:25:58;7.60;;;5.07;;
13832;SDS011;6987;19.472;-99.276;2023-05-07T05:28:27;5.57;;;4.53;;
13832;SDS011;6987;19.472;-99.276;2023-05-07T05:30:56;5.55;;;5.05;;
13832;SDS011;6987;19.472;-99.276;2023-05-07T05:33:25;4.88;;;4.45;;
13832;SDS011;6987;19.472;-99.276;2023-05-07T05:35:54;5.30;;;4.90;;
13832;SDS011;6987;19.472;-99.276;2023-05-07T05:38:23;7.20;;;5.10;;
13832;SDS011;6987;19.472;-99.276;2023-05-07T05:40:52;4.28;;;4.05;;
13832;SDS011;6987;19.472;-99.276;2023-05-07T05:43:23;4.60;;;4.20;;
13832;SDS011;6987;19.472;-99.276;2023-05-07T05:45:51;4.45;;;4.15;;
13832;SDS011;6987;19.472;-99.276;2023-05-07T05:48:21;4.32;;;4.07;;
13832;SDS011;6987;19.472;-99.276;2023-05-07T05:50:50;4.65;;;4.25;;
13832;SDS011;6987;19.472;-99.276;2023-05-07T05:53:19;4.43;;;4.13;;
13832;SDS011;6987;19.472;-99.276;2023-05-07T05:55:48;4.07;;;3.72;;
13832;SDS011;6987;19.472;-99.276;2023-05-07T05:58:18;4.90;;;4.50;;
13832;SDS011;6987;19.472;-99.276;2023-05-07T06:00:48;5.07;;;4.78;;
13832;SDS011;6987;19.472;-99.276;2023-05-07T06:03:18;4.65;;;4.25;;
13832;SDS011;6987;19.472;-99.276;2023-05-07T06:05:47;5.35;;;4.45;;
13832;SDS011;6987;19.472;-99.276;2023-05-07T06:08:16;5.05;;;4.30;;
13832;SDS011;6987;19.472;-99.276;2023-05-07T06:10:44;4.30;;;4.00;;
13832;SDS011;6987;19.472;-99.276;2023-05-07T06:13:13;5.00;;;4.60;;
13832;SDS011;6987;19.472;-99.276;2023-05-07T06:15:42;4.15;;;3.88;;
13832;SDS011;6987;19.472;-99.276;2023-05-07T06:18:13;4.43;;;4.10;;
13832;SDS011;6987;19.472;-99.276;2023-05-07T06:20:42;4.38;;;4.07;;
13832;SDS011;6987;19.472;-99.276;2023-05-07T06:23:11;6.15;;;4.78;;
13832;SDS011;6987;19.472;-99.276;2023-05-07T06:25:40;5.32;;;4.93;;
13832;SDS011;6987;19.472;-99.276;2023-05-07T06:28:09;5.22;;;4.82;;
13832;SDS011;6987;19.472;-99.276;2023-05-07T06:30:38;4.88;;;4.40;;
13832;SDS011;6987;19.472;-99.276;2023-05-07T06:33:07;5.72;;;5.28;;
13832;SDS011;6987;19.472;-99.276;2023-05-07T06:35:38;5.97;;;4.68;;
13832;SDS011;6987;19.472;-99.276;2023-05-07T06:38:07;5.50;;;5.00;;
13832;SDS011;6987;19.472;-99.276;2023-05-07T06:40:38;4.43;;;4.13;;
13832;SDS011;6987;19.472;-99.276;2023-05-07T06:43:07;5.28;;;4.82;;
13832;SDS011;6987;19.472;-99.276;2023-05-07T06:45:36;5.18;;;4.68;;
13832;SDS011;6987;19.472;-99.276;2023-05-07T06:48:05;5.07;;;4.68;;
13832;SDS011;6987;19.472;-99.276;2023-05-07T06:50:34;7.05;;;4.70;;
13832;SDS011;6987;19.472;-99.276;2023-05-07T06:53:04;5.30;;;4.90;;
13832;SDS011;6987;19.472;-99.276;2023-05-07T06:55:34;5.13;;;4.68;;
13832;SDS011;6987;19.472;-99.276;2023-05-07T06:58:03;6.03;;;5.43;;
13832;SDS011;6987;19.472;-99.276;2023-05-07T07:00:32;5.95;;;4.80;;
13832;SDS011;6987;19.472;-99.276;2023-05-07T07:03:02;5.68;;;5.13;;
13832;SDS011;6987;19.472;-99.276;2023-05-07T07:05:31;5.43;;;5.05;;
13832;SDS011;6987;19.472;-99.276;2023-05-07T07:08:01;5.65;;;5.25;;
13832;SDS011;6987;19.472;-99.276;2023-05-07T07:10:33;5.70;;;5.25;;
13832;SDS011;6987;19.472;-99.276;2023-05-07T07:16:05;5.82;;;5.13;;
13832;SDS011;6987;19.472;-99.276;2023-05-07T07:18:34;4.97;;;4.68;;
13832;SDS011;6987;19.472;-99.276;2023-05-07T07:21:03;5.70;;;4.65;;
13832;SDS011;6987;19.472;-99.276;2023-05-07T07:23:32;7.10;;;5.63;;
13832;SDS011;6987;19.472;-99.276;2023-05-07T07:26:03;5.13;;;4.70;;
13832;SDS011;6987;19.472;-99.276;2023-05-07T07:28:32;5.20;;;4.90;;
13832;SDS011;6987;19.472;-99.276;2023-05-07T07:31:01;4.85;;;4.63;;
13832;SDS011;6987;19.472;-99.276;2023-05-07T07:33:30;5.45;;;5.07;;
13832;SDS011;6987;19.472;-99.276;2023-05-07T07:36:00;5.72;;;5.22;;
13832;SDS011;6987;19.472;-99.276;2023-05-07T07:38:29;5.00;;;4.70;;
13832;SDS011;6987;19.472;-99.276;2023-05-07T07:40:58;5.63;;;5.10;;
13832;SDS011;6987;19.472;-99.276;2023-05-07T07:43:29;5.25;;;4.80;;
13832;SDS011;6987;19.472;-99.276;2023-05-07T07:45:58;4.93;;;4.60;;
13832;SDS011;6987;19.472;-99.276;2023-05-07T07:48:27;7.88;;;4.82;;
13832;SDS011;6987;19.472;-99.276;2023-05-07T07:50:56;4.90;;;4.50;;
13832;SDS011;6987;19.472;-99.276;2023-05-07T07:53:25;5.18;;;4.68;;
13832;SDS011;6987;19.472;-99.276;2023-05-07T07:55:54;5.53;;;4.65;;
13832;SDS011;6987;19.472;-99.276;2023-05-07T07:58:23;15.27;;;5.07;;
13832;SDS011;6987;19.472;-99.276;2023-05-07T08:00:54;5.53;;;4.82;;
13832;SDS011;6987;19.472;-99.276;2023-05-07T08:03:24;5.10;;;4.70;;
13832;SDS011;6987;19.472;-99.276;2023-05-07T08:05:53;5.88;;;5.13;;
13832;SDS011;6987;19.472;-99.276;2023-05-07T08:08:22;6.05;;;5.60;;
13832;SDS011;6987;19.472;-99.276;2023-05-07T08:10:51;5.82;;;5.22;;
13832;SDS011;6987;19.472;-99.276;2023-05-07T08:13:20;5.07;;;4.57;;
13832;SDS011;6987;19.472;-99.276;2023-05-07T08:15:49;5.78;;;5.30;;
13832;SDS011;6987;19.472;-99.276;2023-05-07T08:18:20;6.15;;;5.53;;
13832;SDS011;6987;19.472;-99.276;2023-05-07T08:20:50;6.07;;;5.68;;
13832;SDS011;6987;19.472;-99.276;2023-05-07T08:23:19;6.45;;;5.93;;
13832;SDS011;6987;19.472;-99.276;2023-05-07T08:25:49;6.72;;;6.20;;
13832;SDS011;6987;19.472;-99.276;2023-05-07T08:28:18;7.78;;;7.07;;
13832;SDS011;6987;19.472;-99.276;2023-05-07T08:30:47;6.50;;;6.00;;
13832;SDS011;6987;19.472;-99.276;2023-05-07T08:33:16;6.53;;;5.95;;
13832;SDS011;6987;19.472;-99.276;2023-05-07T08:35:47;6.55;;;5.97;;
13832;SDS011;6987;19.472;-99.276;2023-05-07T08:38:17;6.47;;;6.07;;
13832;SDS011;6987;19.472;-99.276;2023-05-07T08:40:46;8.05;;;5.82;;
13832;SDS011;6987;19.472;-99.276;2023-05-07T08:43:14;6.25;;;5.85;;
13832;SDS011;6987;19.472;-99.276;2023-05-07T08:45:43;5.75;;;5.25;;
13832;SDS011;6987;19.472;-99.276;2023-05-07T08:48:14;6.70;;;6.10;;
13832;SDS011;6987;19.472;-99.276;2023-05-07T08:50:43;5.80;;;5.38;;
13832;SDS011;6987;19.472;-99.276;2023-05-07T08:53:14;5.82;;;5.32;;
13832;SDS011;6987;19.472;-99.276;2023-05-07T08:55:44;6.65;;;5.00;;
13832;SDS011;6987;19.472;-99.276;2023-05-07T08:58:13;7.05;;;6.55;;
13832;SDS011;6987;19.472;-99.276;2023-05-07T09:00:42;6.20;;;5.57;;
13832;SDS011;6987;19.472;-99.276;2023-05-07T09:05:52;6.72;;;6.05;;
13832;SDS011;6987;19.472;-99.276;2023-05-07T09:08:23;6.97;;;6.03;;
13832;SDS011;6987;19.472;-99.276;2023-05-07T09:10:52;6.00;;;5.50;;
13832;SDS011;6987;19.472;-99.276;2023-05-07T09:13:22;7.82;;;6.15;;
13832;SDS011;6987;19.472;-99.276;2023-05-07T09:15:50;6.35;;;5.75;;
13832;SDS011;6987;19.472;-99.276;2023-05-07T09:18:19;7.15;;;6.05;;
13832;SDS011;6987;19.472;-99.276;2023-05-07T09:20:48;6.90;;;6.30;;
13832;SDS011;6987;19.472;-99.276;2023-05-07T09:23:17;5.88;;;5.40;;
13832;SDS011;6987;19.472;-99.276;2023-05-07T09:25:47;6.47;;;5.88;;
13832;SDS011;6987;19.472;-99.276;2023-05-07T09:28:16;7.40;;;5.63;;
13832;SDS011;6987;19.472;-99.276;2023-05-07T09:30:46;6.05;;;5.55;;
13832;SDS011;6987;19.472;-99.276;2023-05-07T09:33:14;6.28;;;5.70;;
13832;SDS011;6987;19.472;-99.276;2023-05-07T09:35:43;6.88;;;5.80;;
13832;SDS011;6987;19.472;-99.276;2023-05-07T09:38:12;5.68;;;5.28;;
13832;SDS011;6987;19.472;-99.276;2023-05-07T09:40:41;6.53;;;5.65;;
13832;SDS011;6987;19.472;-99.276;2023-05-07T09:43:14;5.95;;;5.55;;
13832;SDS011;6987;19.472;-99.276;2023-05-07T09:45:42;6.50;;;5.57;;
13832;SDS011;6987;19.472;-99.276;2023-05-07T09:48:11;5.70;;;5.32;;
13832;SDS011;6987;19.472;-99.276;2023-05-07T09:50:44;5.65;;;5.25;;
13832;SDS011;6987;19.472;-99.276;2023-05-07T09:53:17;5.82;;;5.35;;
13832;SDS011;6987;19.472;-99.276;2023-05-07T09:55:46;6.00;;;5.50;;
13832;SDS011;6987;19.472;-99.276;2023-05-07T09:58:16;5.40;;;5.00;;
13832;SDS011;6987;19.472;-99.276;2023-05-07T10:00:47;6.15;;;5.15;;
13832;SDS011;6987;19.472;-99.276;2023-05-07T10:03:16;8.07;;;5.38;;
13832;SDS011;6987;19.472;-99.276;2023-05-07T10:05:46;5.90;;;5.50;;
13832;SDS011;6987;19.472;-99.276;2023-05-07T10:08:15;6.03;;;5.53;;
13832;SDS011;6987;19.472;-99.276;2023-05-07T10:10:45;5.60;;;5.22;;
13832;SDS011;6987;19.472;-99.276;2023-05-07T10:13:17;6.53;;;5.93;;
13832;SDS011;6987;19.472;-99.276;2023-05-07T10:15:47;5.10;;;4.78;;
13832;SDS011;6987;19.472;-99.276;2023-05-07T10:18:16;6.10;;;5.60;;
13832;SDS011;6987;19.472;-99.276;2023-05-07T10:20:48;6.00;;;5.60;;
13832;SDS011;6987;19.472;-99.276;2023-05-07T10:23:19;6.00;;;5.55;;
13832;SDS011;6987;19.472;-99.276;2023-05-07T10:25:50;5.45;;;5.05;;
13832;SDS011;6987;19.472;-99.276;2023-05-07T10:28:21;5.40;;;4.90;;
13832;SDS011;6987;19.472;-99.276;2023-05-07T10:30:55;5.63;;;5.15;;
13832;SDS011;6987;19.472;-99.276;2023-05-07T10:33:28;6.22;;;5.75;;
13832;SDS011;6987;19.472;-99.276;2023-05-07T10:35:58;5.35;;;4.85;;
13832;SDS011;6987;19.472;-99.276;2023-05-07T10:38:30;6.43;;;5.32;;
13832;SDS011;6987;19.472;-99.276;2023-05-07T10:40:59;5.40;;;5.00;;
13832;SDS011;6987;19.472;-99.276;2023-05-07T10:43:40;5.15;;;4.85;;
13832;SDS011;6987;19.472;-99.276;2023-05-07T10:46:09;5.30;;;4.90;;
13832;SDS011;6987;19.472;-99.276;2023-05-07T10:51:32;4.78;;;4.43;;
13832;SDS011;6987;19.472;-99.276;2023-05-07T10:54:19;5.47;;;5.07;;
13832;SDS011;6987;19.472;-99.276;2023-05-07T10:56:50;5.53;;;5.00;;
13832;SDS011;6987;19.472;-99.276;2023-05-07T10:59:36;4.93;;;4.63;;
13832;SDS011;6987;19.472;-99.276;2023-05-07T11:02:09;5.50;;;5.00;;
13832;SDS011;6987;19.472;-99.276;2023-05-07T11:04:39;5.03;;;4.68;;
13832;SDS011;6987;19.472;-99.276;2023-05-07T11:10:00;7.05;;;4.50;;
13832;SDS011;6987;19.472;-99.276;2023-05-07T11:12:49;5.45;;;4.95;;
13832;SDS011;6987;19.472;-99.276;2023-05-07T11:15:35;5.60;;;5.10;;
13832;SDS011;6987;19.472;-99.276;2023-05-07T11:18:04;7.57;;;4.55;;
13832;SDS011;6987;19.472;-99.276;2023-05-07T11:20:46;5.10;;;4.70;;
13832;SDS011;6987;19.472;-99.276;2023-05-07T11:26:03;7.30;;;5.47;;
13832;SDS011;6987;19.472;-99.276;2023-05-07T11:28:36;4.63;;;4.22;;
13832;SDS011;6987;19.472;-99.276;2023-05-07T11:31:07;6.88;;;4.88;;
13832;SDS011;6987;19.472;-99.276;2023-05-07T11:33:37;5.00;;;4.68;;
13832;SDS011;6987;19.472;-99.276;2023-05-07T11:36:07;5.13;;;4.72;;
13832;SDS011;6987;19.472;-99.276;2023-05-07T11:38:37;5.38;;;4.93;;
13832;SDS011;6987;19.472;-99.276;2023-05-07T11:41:06;5.53;;;4.95;;
13832;SDS011;6987;19.472;-99.276;2023-05-07T11:43:36;5.90;;;5.32;;
13832;SDS011;6987;19.472;-99.276;2023-05-07T11:46:08;5.38;;;4.93;;
13832;SDS011;6987;19.472;-99.276;2023-05-07T11:48:37;5.03;;;4.18;;
13832;SDS011;6987;19.472;-99.276;2023-05-07T11:51:07;5.30;;;4.80;;
13832;SDS011;6987;19.472;-99.276;2023-05-07T11:53:38;5.70;;;4.72;;
13832;SDS011;6987;19.472;-99.276;2023-05-07T11:56:07;4.65;;;4.32;;
13832;SDS011;6987;19.472;-99.276;2023-05-07T11:58:36;4.13;;;3.90;;
13832;SDS011;6987;19.472;-99.276;2023-05-07T12:01:09;6.88;;;4.32;;
13832;SDS011;6987;19.472;-99.276;2023-05-07T12:03:40;5.72;;;5.20;;
13832;SDS011;6987;19.472;-99.276;2023-05-07T12:06:10;5.43;;;4.93;;
13832;SDS011;6987;19.472;-99.276;2023-05-07T12:08:39;5.32;;;4.88;;
13832;SDS011;6987;19.472;-99.276;2023-05-07T12:11:09;5.38;;;4.97;;
13832;SDS011;6987;19.472;-99.276;2023-05-07T12:13:39;5.65;;;5.15;;
13832;SDS011;6987;19.472;-99.276;2023-05-07T12:16:09;4.68;;;4.38;;
13832;SDS011;6987;19.472;-99.276;2023-05-07T12:18:42;5.05;;;4.60;;
13832;SDS011;6987;19.472;-99.276;2023-05-07T12:21:11;5.75;;;5.22;;
13832;SDS011;6987;19.472;-99.276;2023-05-07T12:23:40;6.25;;;5.65;;
13832;SDS011;6987;19.472;-99.276;2023-05-07T12:26:10;7.60;;;4.93;;
13832;SDS011;6987;19.472;-99.276;2023-05-07T12:28:39;5.70;;;5.15;;
13832;SDS011;6987;19.472;-99.276;2023-05-07T12:31:10;5.47;;;5.05;;
13832;SDS011;6987;19.472;-99.276;2023-05-07T12:33:39;5.10;;;4.70;;
13832;SDS011;6987;19.472;-99.276;2023-05-07T12:36:08;5.78;;;5.18;;
13832;SDS011;6987;19.472;-99.276;2023-05-07T12:38:37;7.20;;;5.13;;
13832;SDS011;6987;19.472;-99.276;2023-05-07T12:41:07;6.22;;;5.15;;
13832;SDS011;6987;19.472;-99.276;2023-05-07T12:43:36;7.10;;;5.03;;
13832;SDS011;6987;19.472;-99.276;2023-05-07T12:46:05;5.00;;;4.57;;
13832;SDS011;6987;19.472;-99.276;2023-05-07T12:48:37;5.78;;;4.75;;
13832;SDS011;6987;19.472;-99.276;2023-05-07T12:51:06;5.63;;;5.13;;
13832;SDS011;6987;19.472;-99.276;2023-05-07T12:53:39;5.18;;;4.68;;
13832;SDS011;6987;19.472;-99.276;2023-05-07T12:56:09;5.20;;;4.80;;
13832;SDS011;6987;19.472;-99.276;2023-05-07T12:58:37;4.78;;;4.38;;
13832;SDS011;6987;19.472;-99.276;2023-05-07T13:01:06;5.47;;;4.97;;
13832;SDS011;6987;19.472;-99.276;2023-05-07T13:03:47;5.72;;;5.18;;
13832;SDS011;6987;19.472;-99.276;2023-05-07T13:06:17;7.28;;;5.57;;
13832;SDS011;6987;19.472;-99.276;2023-05-07T13:08:46;9.57;;;6.20;;
13832;SDS011;6987;19.472;-99.276;2023-05-07T13:11:16;6.28;;;5.68;;
13832;SDS011;6987;19.472;-99.276;2023-05-07T13:13:45;7.05;;;6.35;;
13832;SDS011;6987;19.472;-99.276;2023-05-07T13:16:14;7.15;;;6.00;;
13832;SDS011;6987;19.472;-99.276;2023-05-07T13:18:45;6.93;;;6.28;;
13832;SDS011;6987;19.472;-99.276;2023-05-07T13:21:14;7.00;;;6.07;;
13832;SDS011;6987;19.472;-99.276;2023-05-07T13:23:43;8.05;;;6.32;;
13832;SDS011;6987;19.472;-99.276;2023-05-07T13:26:12;6.50;;;6.00;;
13832;SDS011;6987;19.472;-99.276;2023-05-07T13:28:41;6.75;;;6.15;;
13832;SDS011;6987;19.472;-99.276;2023-05-07T13:31:11;7.80;;;7.20;;
13832;SDS011;6987;19.472;-99.276;2023-05-07T13:33:40;7.82;;;6.63;;
13832;SDS011;6987;19.472;-99.276;2023-05-07T13:36:10;6.50;;;6.03;;
13832;SDS011;6987;19.472;-99.276;2023-05-07T13:38:39;7.55;;;6.88;;
13832;SDS011;6987;19.472;-99.276;2023-05-07T13:41:08;7.60;;;6.80;;
13832;SDS011;6987;19.472;-99.276;2023-05-07T13:43:38;7.38;;;6.68;;
13832;SDS011;6987;19.472;-99.276;2023-05-07T13:46:07;8.43;;;7.40;;
13832;SDS011;6987;19.472;-99.276;2023-05-07T13:48:36;7.72;;;6.95;;
13832;SDS011;6987;19.472;-99.276;2023-05-07T13:51:05;9.40;;;8.27;;
13832;SDS011;6987;19.472;-99.276;2023-05-07T13:53:36;9.70;;;7.38;;
13832;SDS011;6987;19.472;-99.276;2023-05-07T13:56:05;8.68;;;7.97;;
13832;SDS011;6987;19.472;-99.276;2023-05-07T13:58:34;7.95;;;7.18;;
13832;SDS011;6987;19.472;-99.276;2023-05-07T14:01:03;8.32;;;7.53;;
13832;SDS011;6987;19.472;-99.276;2023-05-07T14:03:32;11.13;;;9.45;;
13832;SDS011;6987;19.472;-99.276;2023-05-07T14:06:03;11.40;;;9.25;;
13832;SDS011;6987;19.472;-99.276;2023-05-07T14:08:32;11.38;;;10.27;;
13832;SDS011;6987;19.472;-99.276;2023-05-07T14:11:02;10.57;;;9.68;;
13832;SDS011;6987;19.472;-99.276;2023-05-07T14:13:32;10.52;;;9.52;;
13832;SDS011;6987;19.472;-99.276;2023-05-07T14:16:02;10.93;;;8.57;;
13832;SDS011;6987;19.472;-99.276;2023-05-07T14:18:31;13.20;;;9.48;;
13832;SDS011;6987;19.472;-99.276;2023-05-07T14:21:02;13.98;;;10.43;;
13832;SDS011;6987;19.472;-99.276;2023-05-07T14:23:31;11.35;;;10.18;;
13832;SDS011;6987;19.472;-99.276;2023-05-07T14:26:03;14.95;;;10.60;;
13832;SDS011;6987;19.472;-99.276;2023-05-07T14:28:32;11.82;;;10.77;;
13832;SDS011;6987;19.472;-99.276;2023-05-07T14:31:01;12.50;;;11.10;;
13832;SDS011;6987;19.472;-99.276;2023-05-07T14:33:31;12.50;;;10.18;;
13832;SDS011;6987;19.472;-99.276;2023-05-07T14:36:01;11.57;;;10.55;;
13832;SDS011;6987;19.472;-99.276;2023-05-07T14:38:29;10.77;;;9.82;;
13832;SDS011;6987;19.472;-99.276;2023-05-07T14:40:59;13.00;;;10.05;;
13832;SDS011;6987;19.472;-99.276;2023-05-07T14:43:30;12.43;;;10.50;;
13832;SDS011;6987;19.472;-99.276;2023-05-07T14:45:59;13.65;;;10.68;;
13832;SDS011;6987;19.472;-99.276;2023-05-07T14:48:27;10.90;;;9.80;;
13832;SDS011;6987;19.472;-99.276;2023-05-07T14:50:57;12.60;;;11.07;;
13832;SDS011;6987;19.472;-99.276;2023-05-07T14:53:27;12.93;;;10.30;;
13832;SDS011;6987;19.472;-99.276;2023-05-07T14:55:57;12.05;;;10.70;;
13832;SDS011;6987;19.472;-99.276;2023-05-07T14:58:26;11.48;;;9.90;;